EPLL/LCJ METAR and TAF weather

Enter ICAO airport designator
Station Type Date Time Source
EPLL METAR 2022/12/08 13:30 UTC NOAA

EPLL 081330Z 18005KT 130V240 9999 FEW023 03/01 Q1008


Station Type Date Time Source
EPLL Decoded METAR 2022/12/08 13:30 UTC NOAA

Station name not available
Dec 08, 2022 - 08:30 AM EST / 2022.12.08 1330 UTC
Wind: from the S (180 degrees) at 6 MPH (5 KT) (direction variable):0
Visibility: greater than 7 mile(s):0
Sky conditions: mostly clear
Temperature: 37 F (3 C)
Dew Point: 33 F (1 C)
Relative Humidity: 86%
Pressure (altimeter): 29.77 in. Hg (1008 hPa)
ob: EPLL 081330Z 18005KT 130V240 9999 FEW023 03/01 Q1008
cycle: 13

Station Type Date Time Source
EPLL TAF 2022/12/08 12:00 UTC NOAA

TAF EPLL 081130Z 0812/0912 19005KT 9999 BKN045
TEMPO 0900/0912 BKN014 PROB40 0902/0909 2000 BR BKN003

Example: see airport list